sensor_id;sensor_type;location;lat;lon;timestamp;pressure;altitude;pressure_sealevel;temperature;humidity
28701;BME280;15877;52.344;16.790;2023-02-28T00:00:25;102184.98;;;4.23;57.91
28701;BME280;15877;52.344;16.790;2023-02-28T00:03:17;102187.30;;;4.22;58.01
28701;BME280;15877;52.344;16.790;2023-02-28T00:05:50;102188.31;;;4.17;57.84
28701;BME280;15877;52.344;16.790;2023-02-28T00:08:25;102189.96;;;4.15;57.98
28701;BME280;15877;52.344;16.790;2023-02-28T00:11:03;102190.34;;;4.16;57.78
28701;BME280;15877;52.344;16.790;2023-02-28T00:13:38;102184.13;;;4.15;57.45
28701;BME280;15877;52.344;16.790;2023-02-28T00:16:13;102187.55;;;4.12;57.52
28701;BME280;15877;52.344;16.790;2023-02-28T00:18:47;102189.52;;;4.11;57.68
28701;BME280;15877;52.344;16.790;2023-02-28T00:21:21;102193.16;;;4.10;57.72
28701;BME280;15877;52.344;16.790;2023-02-28T00:23:53;102192.17;;;4.07;57.65
28701;BME280;15877;52.344;16.790;2023-02-28T00:26:26;102188.44;;;4.06;57.74
28701;BME280;15877;52.344;16.790;2023-02-28T00:28:59;102192.40;;;4.03;57.30
28701;BME280;15877;52.344;16.790;2023-02-28T00:31:31;102187.34;;;4.03;57.38
28701;BME280;15877;52.344;16.790;2023-02-28T00:34:04;102191.09;;;4.01;57.38
28701;BME280;15877;52.344;16.790;2023-02-28T00:36:37;102195.86;;;4.00;57.66
28701;BME280;15877;52.344;16.790;2023-02-28T00:39:09;102196.38;;;4.01;57.64
28701;BME280;15877;52.344;16.790;2023-02-28T00:41:42;102199.17;;;3.99;57.83
28701;BME280;15877;52.344;16.790;2023-02-28T00:44:14;102200.34;;;3.96;58.02
28701;BME280;15877;52.344;16.790;2023-02-28T00:46:46;102199.46;;;3.96;58.09
28701;BME280;15877;52.344;16.790;2023-02-28T00:49:19;102201.77;;;3.90;58.39
28701;BME280;15877;52.344;16.790;2023-02-28T00:51:53;102200.79;;;3.88;58.63
28701;BME280;15877;52.344;16.790;2023-02-28T00:54:44;102200.69;;;3.87;58.47
28701;BME280;15877;52.344;16.790;2023-02-28T00:57:18;102197.87;;;3.87;58.29
28701;BME280;15877;52.344;16.790;2023-02-28T00:59:51;102198.21;;;3.86;58.16
28701;BME280;15877;52.344;16.790;2023-02-28T01:02:25;102202.61;;;3.86;58.04
28701;BME280;15877;52.344;16.790;2023-02-28T01:04:58;102201.34;;;3.83;58.06
28701;BME280;15877;52.344;16.790;2023-02-28T01:07:33;102200.19;;;3.78;57.85
28701;BME280;15877;52.344;16.790;2023-02-28T01:10:08;102203.22;;;3.74;57.94
28701;BME280;15877;52.344;16.790;2023-02-28T01:12:41;102200.25;;;3.73;57.99
28701;BME280;15877;52.344;16.790;2023-02-28T01:15:14;102203.10;;;3.74;58.18
28701;BME280;15877;52.344;16.790;2023-02-28T01:17:48;102198.88;;;3.71;58.31
28701;BME280;15877;52.344;16.790;2023-02-28T01:20:21;102195.58;;;3.65;58.50
28701;BME280;15877;52.344;16.790;2023-02-28T01:22:53;102196.19;;;3.62;58.66
28701;BME280;15877;52.344;16.790;2023-02-28T01:25:26;102200.09;;;3.59;58.89
28701;BME280;15877;52.344;16.790;2023-02-28T01:27:59;102199.20;;;3.53;58.98
28701;BME280;15877;52.344;16.790;2023-02-28T01:30:31;102197.50;;;3.48;59.12
28701;BME280;15877;52.344;16.790;2023-02-28T01:33:04;102196.40;;;3.52;58.82
28701;BME280;15877;52.344;16.790;2023-02-28T01:35:36;102186.45;;;3.54;58.58
28701;BME280;15877;52.344;16.790;2023-02-28T01:38:09;102184.76;;;3.53;58.36
28701;BME280;15877;52.344;16.790;2023-02-28T01:40:53;102185.13;;;3.52;58.33
28701;BME280;15877;52.344;16.790;2023-02-28T01:43:28;102185.96;;;3.49;58.25
28701;BME280;15877;52.344;16.790;2023-02-28T01:46:00;102184.70;;;3.48;58.39
28701;BME280;15877;52.344;16.790;2023-02-28T01:48:38;102184.14;;;3.48;58.27
28701;BME280;15877;52.344;16.790;2023-02-28T01:51:15;102181.66;;;3.46;58.05
28701;BME280;15877;52.344;16.790;2023-02-28T01:53:53;102185.13;;;3.43;58.06
28701;BME280;15877;52.344;16.790;2023-02-28T01:56:30;102184.59;;;3.42;58.20
28701;BME280;15877;52.344;16.790;2023-02-28T01:59:04;102180.80;;;3.40;58.42
28701;BME280;15877;52.344;16.790;2023-02-28T02:01:37;102186.85;;;3.37;58.72
28701;BME280;15877;52.344;16.790;2023-02-28T02:04:10;102183.54;;;3.32;58.97
28701;BME280;15877;52.344;16.790;2023-02-28T02:06:44;102163.46;;;3.24;59.09
28701;BME280;15877;52.344;16.790;2023-02-28T02:09:20;102180.02;;;3.33;59.12
28701;BME280;15877;52.344;16.790;2023-02-28T02:11:52;102176.38;;;3.32;59.24
28701;BME280;15877;52.344;16.790;2023-02-28T02:14:46;102175.67;;;3.34;59.24
28701;BME280;15877;52.344;16.790;2023-02-28T02:17:28;102177.43;;;3.31;59.36
28701;BME280;15877;52.344;16.790;2023-02-28T02:23:41;102174.91;;;3.28;59.22
28701;BME280;15877;52.344;16.790;2023-02-28T02:26:46;102160.56;;;3.19;59.18
28701;BME280;15877;52.344;16.790;2023-02-28T02:32:49;102164.30;;;3.14;59.04
28701;BME280;15877;52.344;16.790;2023-02-28T02:35:36;102176.83;;;3.22;59.04
28701;BME280;15877;52.344;16.790;2023-02-28T02:38:19;102175.00;;;3.17;58.95
28701;BME280;15877;52.344;16.790;2023-02-28T02:40:59;102174.45;;;3.16;58.86
28701;BME280;15877;52.344;16.790;2023-02-28T02:43:38;102177.52;;;3.15;58.96
28701;BME280;15877;52.344;16.790;2023-02-28T02:46:16;102174.00;;;3.12;59.07
28701;BME280;15877;52.344;16.790;2023-02-28T02:48:53;102176.77;;;3.01;59.28
28701;BME280;15877;52.344;16.790;2023-02-28T02:51:28;102175.15;;;3.01;59.45
28701;BME280;15877;52.344;16.790;2023-02-28T02:54:08;102174.59;;;3.01;59.34
28701;BME280;15877;52.344;16.790;2023-02-28T02:56:45;102174.54;;;3.04;59.34
28701;BME280;15877;52.344;16.790;2023-02-28T02:59:21;102173.21;;;3.00;59.38
28701;BME280;15877;52.344;16.790;2023-02-28T03:01:56;102174.30;;;2.98;59.36
28701;BME280;15877;52.344;16.790;2023-02-28T03:04:33;102174.80;;;2.97;59.31
28701;BME280;15877;52.344;16.790;2023-02-28T03:07:07;102171.77;;;2.95;59.19
28701;BME280;15877;52.344;16.790;2023-02-28T03:09:49;102170.18;;;2.95;59.06
28701;BME280;15877;52.344;16.790;2023-02-28T03:12:27;102148.48;;;2.86;59.19
28701;BME280;15877;52.344;16.790;2023-02-28T03:15:10;102169.19;;;2.93;59.06
28701;BME280;15877;52.344;16.790;2023-02-28T03:18:02;102170.89;;;2.90;58.83
28701;BME280;15877;52.344;16.790;2023-02-28T03:20:41;102174.73;;;2.90;58.81
28701;BME280;15877;52.344;16.790;2023-02-28T03:23:26;102172.13;;;2.86;58.49
28701;BME280;15877;52.344;16.790;2023-02-28T03:26:05;102173.56;;;2.85;58.59
28701;BME280;15877;52.344;16.790;2023-02-28T03:28:43;102177.11;;;2.84;58.59
28701;BME280;15877;52.344;16.790;2023-02-28T03:31:22;102174.86;;;2.80;58.43
28701;BME280;15877;52.344;16.790;2023-02-28T03:34:06;102176.00;;;2.77;58.39
28701;BME280;15877;52.344;16.790;2023-02-28T03:36:44;102172.43;;;2.74;58.49
28701;BME280;15877;52.344;16.790;2023-02-28T03:39:21;102171.92;;;2.70;58.65
28701;BME280;15877;52.344;16.790;2023-02-28T03:41:59;102160.30;;;2.56;58.75
28701;BME280;15877;52.344;16.790;2023-02-28T03:44:36;102176.39;;;2.63;58.86
28701;BME280;15877;52.344;16.790;2023-02-28T03:47:12;102176.13;;;2.63;59.08
28701;BME280;15877;52.344;16.790;2023-02-28T03:49:48;102176.00;;;2.59;59.21
28701;BME280;15877;52.344;16.790;2023-02-28T03:52:25;102181.97;;;2.57;59.18
28701;BME280;15877;52.344;16.790;2023-02-28T03:55:02;102180.54;;;2.56;59.48
28701;BME280;15877;52.344;16.790;2023-02-28T03:57:40;102184.10;;;2.55;59.74
28701;BME280;15877;52.344;16.790;2023-02-28T04:00:21;102183.94;;;2.55;59.81
28701;BME280;15877;52.344;16.790;2023-02-28T04:02:59;102183.05;;;2.54;59.65
28701;BME280;15877;52.344;16.790;2023-02-28T04:05:33;102180.95;;;2.51;59.54
28701;BME280;15877;52.344;16.790;2023-02-28T04:08:16;102184.64;;;2.51;59.44
28701;BME280;15877;52.344;16.790;2023-02-28T04:10:53;102186.94;;;2.50;59.45
28701;BME280;15877;52.344;16.790;2023-02-28T04:13:27;102187.27;;;2.49;59.37
28701;BME280;15877;52.344;16.790;2023-02-28T04:16:01;102191.98;;;2.49;59.29
28701;BME280;15877;52.344;16.790;2023-02-28T04:18:54;102191.54;;;2.47;59.14
28701;BME280;15877;52.344;16.790;2023-02-28T04:21:34;102189.39;;;2.46;59.15
28701;BME280;15877;52.344;16.790;2023-02-28T04:24:08;102186.40;;;2.39;59.26
28701;BME280;15877;52.344;16.790;2023-02-28T04:26:46;102189.08;;;2.38;59.42
28701;BME280;15877;52.344;16.790;2023-02-28T04:29:22;102191.45;;;2.41;59.35
28701;BME280;15877;52.344;16.790;2023-02-28T04:31:56;102194.66;;;2.36;59.28
28701;BME280;15877;52.344;16.790;2023-02-28T04:34:31;102202.86;;;2.39;59.34
28701;BME280;15877;52.344;16.790;2023-02-28T04:37:04;102188.92;;;2.30;59.34
28701;BME280;15877;52.344;16.790;2023-02-28T04:39:44;102207.51;;;2.38;59.43
28701;BME280;15877;52.344;16.790;2023-02-28T04:42:16;102206.72;;;2.34;59.03
28701;BME280;15877;52.344;16.790;2023-02-28T04:44:49;102206.61;;;2.33;59.04
28701;BME280;15877;52.344;16.790;2023-02-28T04:47:21;102214.00;;;2.30;59.08
28701;BME280;15877;52.344;16.790;2023-02-28T04:49:54;102212.14;;;2.32;59.22
28701;BME280;15877;52.344;16.790;2023-02-28T04:52:28;102209.18;;;2.31;59.06
28701;BME280;15877;52.344;16.790;2023-02-28T04:55:01;102215.05;;;2.31;59.20
28701;BME280;15877;52.344;16.790;2023-02-28T04:57:33;102211.08;;;2.28;59.47
28701;BME280;15877;52.344;16.790;2023-02-28T05:00:07;102214.16;;;2.31;59.55
28701;BME280;15877;52.344;16.790;2023-02-28T05:02:42;102198.68;;;2.18;59.72
28701;BME280;15877;52.344;16.790;2023-02-28T05:05:15;102213.87;;;2.27;59.52
28701;BME280;15877;52.344;16.790;2023-02-28T05:07:49;102212.52;;;2.30;59.37
28701;BME280;15877;52.344;16.790;2023-02-28T05:10:21;102213.09;;;2.26;59.66
28701;BME280;15877;52.344;16.790;2023-02-28T05:12:54;102221.42;;;2.25;59.53
28701;BME280;15877;52.344;16.790;2023-02-28T05:15:26;102220.25;;;2.21;59.46
28701;BME280;15877;52.344;16.790;2023-02-28T05:17:59;102223.16;;;2.21;59.36
28701;BME280;15877;52.344;16.790;2023-02-28T05:20:32;102227.71;;;2.20;59.32
28701;BME280;15877;52.344;16.790;2023-02-28T05:23:05;102233.61;;;2.19;59.45
28701;BME280;15877;52.344;16.790;2023-02-28T05:25:37;102229.40;;;2.19;59.38
28701;BME280;15877;52.344;16.790;2023-02-28T05:28:10;102232.75;;;2.20;59.35
28701;BME280;15877;52.344;16.790;2023-02-28T05:30:42;102230.05;;;2.18;59.43
28701;BME280;15877;52.344;16.790;2023-02-28T05:33:15;102230.65;;;2.18;59.38
28701;BME280;15877;52.344;16.790;2023-02-28T05:35:50;102235.91;;;2.17;59.27
28701;BME280;15877;52.344;16.790;2023-02-28T05:38:23;102237.33;;;2.15;59.30
28701;BME280;15877;52.344;16.790;2023-02-28T05:40:55;102222.09;;;2.01;59.08
28701;BME280;15877;52.344;16.790;2023-02-28T05:43:28;102239.92;;;2.11;59.22
28701;BME280;15877;52.344;16.790;2023-02-28T05:46:03;102240.96;;;2.09;59.28
28701;BME280;15877;52.344;16.790;2023-02-28T05:48:38;102246.45;;;2.10;59.33
28701;BME280;15877;52.344;16.790;2023-02-28T05:51:11;102232.17;;;1.98;59.53
28701;BME280;15877;52.344;16.790;2023-02-28T05:53:43;102255.00;;;2.09;59.42
28701;BME280;15877;52.344;16.790;2023-02-28T05:56:16;102254.52;;;2.09;59.51
28701;BME280;15877;52.344;16.790;2023-02-28T05:58:49;102256.99;;;2.12;59.56
28701;BME280;15877;52.344;16.790;2023-02-28T06:01:24;102258.36;;;2.13;59.54
28701;BME280;15877;52.344;16.790;2023-02-28T06:03:58;102258.75;;;2.12;59.43
28701;BME280;15877;52.344;16.790;2023-02-28T06:06:33;102254.85;;;2.11;59.21
28701;BME280;15877;52.344;16.790;2023-02-28T06:09:07;102256.15;;;2.10;59.23
28701;BME280;15877;52.344;16.790;2023-02-28T06:11:39;102263.98;;;2.08;59.30
28701;BME280;15877;52.344;16.790;2023-02-28T06:14:17;102267.84;;;2.09;59.29
28701;BME280;15877;52.344;16.790;2023-02-28T06:16:50;102263.55;;;2.09;59.34
28701;BME280;15877;52.344;16.790;2023-02-28T06:19:24;102269.35;;;2.08;59.71
28701;BME280;15877;52.344;16.790;2023-02-28T06:21:58;102275.18;;;2.10;59.62
28701;BME280;15877;52.344;16.790;2023-02-28T06:24:33;102271.48;;;2.11;59.72
28701;BME280;15877;52.344;16.790;2023-02-28T06:27:05;102254.45;;;2.03;59.65
28701;BME280;15877;52.344;16.790;2023-02-28T06:29:38;102274.05;;;2.13;59.96
28701;BME280;15877;52.344;16.790;2023-02-28T06:32:11;102277.98;;;2.16;60.37
28701;BME280;15877;52.344;16.790;2023-02-28T06:34:44;102277.83;;;2.18;60.44
28701;BME280;15877;52.344;16.790;2023-02-28T06:37:17;102281.00;;;2.18;60.54
28701;BME280;15877;52.344;16.790;2023-02-28T06:39:50;102275.05;;;2.22;60.28
28701;BME280;15877;52.344;16.790;2023-02-28T06:42:22;102274.58;;;2.24;60.31
28701;BME280;15877;52.344;16.790;2023-02-28T06:45:01;102271.40;;;2.26;60.45
28701;BME280;15877;52.344;16.790;2023-02-28T06:47:41;102271.91;;;2.30;60.57
28701;BME280;15877;52.344;16.790;2023-02-28T06:50:15;102277.09;;;2.33;60.69
28701;BME280;15877;52.344;16.790;2023-02-28T06:52:50;102275.52;;;2.36;60.86
28701;BME280;15877;52.344;16.790;2023-02-28T06:55:25;102283.70;;;2.38;60.90
28701;BME280;15877;52.344;16.790;2023-02-28T06:58:02;102279.21;;;2.38;60.82
28701;BME280;15877;52.344;16.790;2023-02-28T07:00:49;102279.45;;;2.40;61.15
28701;BME280;15877;52.344;16.790;2023-02-28T07:03:22;102278.64;;;2.42;61.32
28701;BME280;15877;52.344;16.790;2023-02-28T07:05:55;102278.40;;;2.48;61.38
28701;BME280;15877;52.344;16.790;2023-02-28T07:08:28;102287.58;;;2.52;61.32
28701;BME280;15877;52.344;16.790;2023-02-28T07:11:03;102289.68;;;2.54;61.43
28701;BME280;15877;52.344;16.790;2023-02-28T07:13:35;102287.70;;;2.53;61.98
28701;BME280;15877;52.344;16.790;2023-02-28T07:16:10;102290.65;;;2.60;61.87
28701;BME280;15877;52.344;16.790;2023-02-28T07:18:43;102271.18;;;2.54;62.05
28701;BME280;15877;52.344;16.790;2023-02-28T07:21:16;102283.16;;;2.65;62.23
28701;BME280;15877;52.344;16.790;2023-02-28T07:23:49;102281.92;;;2.70;62.24
28701;BME280;15877;52.344;16.790;2023-02-28T07:26:22;102263.00;;;2.63;62.25
28701;BME280;15877;52.344;16.790;2023-02-28T07:28:55;102280.80;;;2.76;62.73
28701;BME280;15877;52.344;16.790;2023-02-28T07:31:28;102283.11;;;2.79;62.84
28701;BME280;15877;52.344;16.790;2023-02-28T07:34:00;102284.90;;;2.85;62.76
28701;BME280;15877;52.344;16.790;2023-02-28T07:36:33;102282.94;;;2.90;63.03
28701;BME280;15877;52.344;16.790;2023-02-28T07:39:06;102284.50;;;2.96;63.10
28701;BME280;15877;52.344;16.790;2023-02-28T07:41:40;102291.71;;;2.99;63.31
28701;BME280;15877;52.344;16.790;2023-02-28T07:44:14;102291.05;;;3.00;63.63
28701;BME280;15877;52.344;16.790;2023-02-28T07:46:47;102294.44;;;3.08;63.69
28701;BME280;15877;52.344;16.790;2023-02-28T07:49:20;102292.23;;;3.16;63.37
28701;BME280;15877;52.344;16.790;2023-02-28T07:51:53;102289.88;;;3.21;63.48
28701;BME280;15877;52.344;16.790;2023-02-28T07:54:25;102295.42;;;3.24;63.63
28701;BME280;15877;52.344;16.790;2023-02-28T07:56:58;102295.39;;;3.32;63.62
28701;BME280;15877;52.344;16.790;2023-02-28T07:59:31;102296.73;;;3.38;63.54
28701;BME280;15877;52.344;16.790;2023-02-28T08:02:03;102300.58;;;3.42;63.54
28701;BME280;15877;52.344;16.790;2023-02-28T08:04:36;102289.63;;;3.32;63.90
28701;BME280;15877;52.344;16.790;2023-02-28T08:07:08;102305.48;;;3.47;63.78
28701;BME280;15877;52.344;16.790;2023-02-28T08:09:45;102302.48;;;3.53;63.51
28701;BME280;15877;52.344;16.790;2023-02-28T08:12:17;102306.23;;;3.56;63.74
28701;BME280;15877;52.344;16.790;2023-02-28T08:14:50;102283.46;;;3.53;63.60
28701;BME280;15877;52.344;16.790;2023-02-28T08:17:22;102302.89;;;3.70;63.25
28701;BME280;15877;52.344;16.790;2023-02-28T08:19:55;102302.40;;;3.77;63.10
28701;BME280;15877;52.344;16.790;2023-02-28T08:22:28;102284.48;;;3.77;63.12
28701;BME280;15877;52.344;16.790;2023-02-28T08:25:00;102303.29;;;3.91;63.27
28701;BME280;15877;52.344;16.790;2023-02-28T08:27:32;102295.77;;;4.01;62.91
28701;BME280;15877;52.344;16.790;2023-02-28T08:30:06;102297.63;;;4.04;62.90
28701;BME280;15877;52.344;16.790;2023-02-28T08:32:39;102295.70;;;4.15;62.58
28701;BME280;15877;52.344;16.790;2023-02-28T08:35:13;102297.45;;;4.18;62.56
28701;BME280;15877;52.344;16.790;2023-02-28T08:37:45;102297.67;;;4.28;62.42
28701;BME280;15877;52.344;16.790;2023-02-28T08:40:19;102294.31;;;4.34;62.38
28701;BME280;15877;52.344;16.790;2023-02-28T08:42:52;102295.89;;;4.39;62.35
28701;BME280;15877;52.344;16.790;2023-02-28T08:45:24;102295.55;;;4.48;62.17
28701;BME280;15877;52.344;16.790;2023-02-28T08:47:57;102293.94;;;4.49;62.38
28701;BME280;15877;52.344;16.790;2023-02-28T08:50:29;102296.63;;;4.55;61.92
28701;BME280;15877;52.344;16.790;2023-02-28T08:53:03;102296.78;;;4.60;61.68
28701;BME280;15877;52.344;16.790;2023-02-28T08:55:35;102294.69;;;4.63;61.48
28701;BME280;15877;52.344;16.790;2023-02-28T08:58:08;102278.18;;;4.60;61.64
28701;BME280;15877;52.344;16.790;2023-02-28T09:00:41;102290.65;;;4.82;61.04
28701;BME280;15877;52.344;16.790;2023-02-28T09:03:13;102290.22;;;4.84;60.78
28701;BME280;15877;52.344;16.790;2023-02-28T09:05:55;102294.57;;;4.85;60.79
28701;BME280;15877;52.344;16.790;2023-02-28T09:08:29;102291.16;;;4.93;60.46
28701;BME280;15877;52.344;16.790;2023-02-28T09:11:02;102277.25;;;4.91;59.81
28701;BME280;15877;52.344;16.790;2023-02-28T09:13:35;102286.94;;;5.05;59.66
28701;BME280;15877;52.344;16.790;2023-02-28T09:16:12;102281.76;;;5.17;59.54
28701;BME280;15877;52.344;16.790;2023-02-28T09:18:47;102280.97;;;5.19;59.37
28701;BME280;15877;52.344;16.790;2023-02-28T09:21:20;102283.61;;;5.22;58.57
28701;BME280;15877;52.344;16.790;2023-02-28T09:23:53;102286.89;;;5.28;58.41
28701;BME280;15877;52.344;16.790;2023-02-28T09:26:27;102288.71;;;5.35;57.94
28701;BME280;15877;52.344;16.790;2023-02-28T09:29:12;102288.24;;;5.42;57.62
28701;BME280;15877;52.344;16.790;2023-02-28T09:31:45;102287.27;;;5.46;57.70
28701;BME280;15877;52.344;16.790;2023-02-28T09:34:18;102288.91;;;5.57;57.70
28701;BME280;15877;52.344;16.790;2023-02-28T09:36:50;102290.22;;;5.67;56.92
28701;BME280;15877;52.344;16.790;2023-02-28T09:39:26;102296.81;;;5.70;56.08
28701;BME280;15877;52.344;16.790;2023-02-28T09:41:59;102295.73;;;5.75;56.47
28701;BME280;15877;52.344;16.790;2023-02-28T09:44:37;102294.14;;;5.85;56.66
28701;BME280;15877;52.344;16.790;2023-02-28T09:47:18;102299.53;;;5.94;55.97
28701;BME280;15877;52.344;16.790;2023-02-28T09:50:02;102297.65;;;6.09;55.77
28701;BME280;15877;52.344;16.790;2023-02-28T09:52:37;102299.21;;;6.13;54.58
28701;BME280;15877;52.344;16.790;2023-02-28T09:55:24;102295.05;;;6.10;53.24
28701;BME280;15877;52.344;16.790;2023-02-28T09:58:05;102298.42;;;6.02;53.03
28701;BME280;15877;52.344;16.790;2023-02-28T10:00:42;102286.89;;;6.08;52.89
28701;BME280;15877;52.344;16.790;2023-02-28T10:03:28;102303.44;;;6.35;52.71
28701;BME280;15877;52.344;16.790;2023-02-28T10:06:10;102310.63;;;6.44;52.30
28701;BME280;15877;52.344;16.790;2023-02-28T10:08:47;102312.31;;;6.53;51.85
28701;BME280;15877;52.344;16.790;2023-02-28T10:11:25;102310.03;;;6.64;52.54
28701;BME280;15877;52.344;16.790;2023-02-28T10:14:02;102295.52;;;6.68;52.17
28701;BME280;15877;52.344;16.790;2023-02-28T10:16:39;102309.92;;;6.88;51.57
28701;BME280;15877;52.344;16.790;2023-02-28T10:19:16;102304.80;;;6.97;51.21
28701;BME280;15877;52.344;16.790;2023-02-28T10:21:56;102303.57;;;7.03;50.24
28701;BME280;15877;52.344;16.790;2023-02-28T10:24:34;102305.07;;;7.11;49.95
28701;BME280;15877;52.344;16.790;2023-02-28T10:27:15;102300.17;;;7.18;50.65
28701;BME280;15877;52.344;16.790;2023-02-28T10:29:50;102305.02;;;7.24;50.80
28701;BME280;15877;52.344;16.790;2023-02-28T10:32:22;102299.46;;;7.29;50.63
28701;BME280;15877;52.344;16.790;2023-02-28T10:34:57;102298.63;;;7.22;50.81
28701;BME280;15877;52.344;16.790;2023-02-28T10:37:32;102300.84;;;7.37;50.30
28701;BME280;15877;52.344;16.790;2023-02-28T10:40:28;102301.13;;;7.46;50.14
28701;BME280;15877;52.344;16.790;2023-02-28T10:43:02;102296.81;;;7.57;48.78
28701;BME280;15877;52.344;16.790;2023-02-28T10:45:36;102296.08;;;7.66;48.11
28701;BME280;15877;52.344;16.790;2023-02-28T10:48:32;102291.83;;;7.76;47.54
28701;BME280;15877;52.344;16.790;2023-02-28T10:51:07;102290.70;;;7.83;47.58
28701;BME280;15877;52.344;16.790;2023-02-28T10:53:47;102285.27;;;7.85;47.19
28701;BME280;15877;52.344;16.790;2023-02-28T10:56:31;102284.73;;;7.86;47.19
28701;BME280;15877;52.344;16.790;2023-02-28T10:59:27;102282.23;;;7.84;46.36
28701;BME280;15877;52.344;16.790;2023-02-28T11:02:34;102275.52;;;7.68;46.37
28701;BME280;15877;52.344;16.790;2023-02-28T11:05:25;102271.13;;;7.94;46.98
28701;BME280;15877;52.344;16.790;2023-02-28T11:08:05;102264.08;;;8.17;46.89
28701;BME280;15877;52.344;16.790;2023-02-28T11:11:00;102267.30;;;8.33;46.69
28701;BME280;15877;52.344;16.790;2023-02-28T11:13:56;102267.59;;;8.41;46.40
28701;BME280;15877;52.344;16.790;2023-02-28T11:16:51;102265.98;;;8.42;45.93
28701;BME280;15877;52.344;16.790;2023-02-28T11:19:47;102264.09;;;8.59;46.75
28701;BME280;15877;52.344;16.790;2023-02-28T11:22:44;102256.88;;;8.59;45.72
28701;BME280;15877;52.344;16.790;2023-02-28T11:25:22;102257.69;;;8.58;46.50
28701;BME280;15877;52.344;16.790;2023-02-28T11:27:57;102259.36;;;8.69;45.37
28701;BME280;15877;52.344;16.790;2023-02-28T11:30:37;102260.12;;;8.73;44.77
28701;BME280;15877;52.344;16.790;2023-02-28T11:33:29;102256.11;;;8.82;44.98
28701;BME280;15877;52.344;16.790;2023-02-28T11:36:08;102227.52;;;8.68;45.95
28701;BME280;15877;52.344;16.790;2023-02-28T11:38:42;102256.59;;;8.80;44.61
28701;BME280;15877;52.344;16.790;2023-02-28T11:41:35;102249.19;;;8.86;43.75
28701;BME280;15877;52.344;16.790;2023-02-28T11:44:32;102245.41;;;8.92;43.07
28701;BME280;15877;52.344;16.790;2023-02-28T11:47:17;102241.86;;;9.05;43.72
28701;BME280;15877;52.344;16.790;2023-02-28T11:50:07;102241.06;;;9.12;44.81
28701;BME280;15877;52.344;16.790;2023-02-28T11:52:48;102241.01;;;9.14;44.46
28701;BME280;15877;52.344;16.790;2023-02-28T11:55:27;102235.11;;;9.24;44.26
28701;BME280;15877;52.344;16.790;2023-02-28T11:58:26;102232.02;;;9.24;43.62
28701;BME280;15877;52.344;16.790;2023-02-28T12:01:13;102219.64;;;9.19;43.13
28701;BME280;15877;52.344;16.790;2023-02-28T12:03:58;102222.38;;;9.33;43.43
28701;BME280;15877;52.344;16.790;2023-02-28T12:06:36;102219.90;;;9.37;43.73
28701;BME280;15877;52.344;16.790;2023-02-28T12:09:23;102214.61;;;9.36;43.42
28701;BME280;15877;52.344;16.790;2023-02-28T12:12:06;102216.16;;;9.35;43.36
28701;BME280;15877;52.344;16.790;2023-02-28T12:15:02;102212.52;;;9.35;43.80
28701;BME280;15877;52.344;16.790;2023-02-28T12:17:45;102218.23;;;9.44;43.95
28701;BME280;15877;52.344;16.790;2023-02-28T12:20:28;102212.74;;;9.51;43.35
28701;BME280;15877;52.344;16.790;2023-02-28T12:23:19;102210.67;;;9.53;43.72
28701;BME280;15877;52.344;16.790;2023-02-28T12:26:04;102194.52;;;9.45;43.08
28701;BME280;15877;52.344;16.790;2023-02-28T12:28:44;102205.34;;;9.49;42.88
28701;BME280;15877;52.344;16.790;2023-02-28T12:31:22;102202.09;;;9.46;42.65
28701;BME280;15877;52.344;16.790;2023-02-28T12:33:59;102199.14;;;9.44;42.75
28701;BME280;15877;52.344;16.790;2023-02-28T12:36:35;102197.13;;;9.45;42.89
28701;BME280;15877;52.344;16.790;2023-02-28T12:39:12;102199.85;;;9.47;42.76
28701;BME280;15877;52.344;16.790;2023-02-28T12:41:53;102192.08;;;9.27;42.76
28701;BME280;15877;52.344;16.790;2023-02-28T12:44:30;102191.95;;;9.43;42.42
28701;BME280;15877;52.344;16.790;2023-02-28T12:47:15;102188.98;;;9.40;42.13
28701;BME280;15877;52.344;16.790;2023-02-28T12:49:51;102187.26;;;9.35;42.44
28701;BME280;15877;52.344;16.790;2023-02-28T12:52:28;102185.80;;;9.34;42.66
28701;BME280;15877;52.344;16.790;2023-02-28T12:55:08;102186.21;;;9.40;42.39
28701;BME280;15877;52.344;16.790;2023-02-28T12:57:49;102185.23;;;9.56;42.81
28701;BME280;15877;52.344;16.790;2023-02-28T13:00:28;102182.20;;;9.52;42.45
28701;BME280;15877;52.344;16.790;2023-02-28T13:06:27;102179.05;;;9.46;42.82
28701;BME280;15877;52.344;16.790;2023-02-28T13:09:12;102174.93;;;9.29;42.07
28701;BME280;15877;52.344;16.790;2023-02-28T13:11:48;102175.63;;;9.50;42.41
28701;BME280;15877;52.344;16.790;2023-02-28T13:14:34;102168.59;;;9.57;42.37
28701;BME280;15877;52.344;16.790;2023-02-28T13:17:16;102172.27;;;9.63;42.96
28701;BME280;15877;52.344;16.790;2023-02-28T13:19:59;102167.86;;;9.64;42.18
28701;BME280;15877;52.344;16.790;2023-02-28T13:22:43;102173.36;;;9.61;41.96
28701;BME280;15877;52.344;16.790;2023-02-28T13:35:11;102155.42;;;9.55;41.13
28701;BME280;15877;52.344;16.790;2023-02-28T13:37:46;102150.20;;;9.59;41.53
28701;BME280;15877;52.344;16.790;2023-02-28T13:40:33;102149.46;;;9.66;41.33
28701;BME280;15877;52.344;16.790;2023-02-28T13:43:10;102144.71;;;9.57;41.02
28701;BME280;15877;52.344;16.790;2023-02-28T13:46:09;102141.08;;;9.62;41.15
28701;BME280;15877;52.344;16.790;2023-02-28T13:48:43;102143.30;;;9.62;41.10
28701;BME280;15877;52.344;16.790;2023-02-28T13:51:42;102137.27;;;9.58;41.13
28701;BME280;15877;52.344;16.790;2023-02-28T13:54:26;102132.00;;;9.57;40.61
28701;BME280;15877;52.344;16.790;2023-02-28T13:57:15;102115.59;;;9.48;41.12
28701;BME280;15877;52.344;16.790;2023-02-28T14:00:02;102127.79;;;9.68;41.17
28701;BME280;15877;52.344;16.790;2023-02-28T14:03:07;102122.64;;;9.69;40.65